createdAt,value
2018-06-19T00:00:22.111Z,17.90
2018-06-19T00:02:49.774Z,16.87
2018-06-19T00:05:17.549Z,18.50
2018-06-19T00:07:45.376Z,18.90
2018-06-19T00:10:13.068Z,17.00
2018-06-19T00:12:40.813Z,15.90
2018-06-19T00:15:08.531Z,16.33
2018-06-19T00:17:36.578Z,16.17
2018-06-19T00:20:04.628Z,16.47
2018-06-19T00:22:32.310Z,16.53
2018-06-19T00:24:59.947Z,14.93
2018-06-19T00:27:27.584Z,15.47
2018-06-19T00:29:55.321Z,15.30
2018-06-19T00:32:22.937Z,15.20
2018-06-19T00:34:50.576Z,15.63
2018-06-19T00:37:18.189Z,15.60
2018-06-19T00:39:45.792Z,15.97
2018-06-19T00:42:13.486Z,16.00
2018-06-19T00:44:41.087Z,16.43
2018-06-19T00:47:08.778Z,16.50
2018-06-19T00:49:36.384Z,17.00
2018-06-19T00:52:04.037Z,15.20
2018-06-19T00:54:31.634Z,15.20
2018-06-19T00:56:59.832Z,15.07
2018-06-19T00:59:27.749Z,15.30
2018-06-19T01:01:56.789Z,13.60
2018-06-19T01:04:24.432Z,13.70
2018-06-19T01:06:52.017Z,14.60
2018-06-19T01:09:20.595Z,14.70
2018-06-19T01:11:48.632Z,14.87
2018-06-19T01:14:16.572Z,14.50
2018-06-19T01:16:44.481Z,15.47
2018-06-19T01:19:12.173Z,15.43
2018-06-19T01:21:39.782Z,15.07
2018-06-19T01:24:07.487Z,15.93
2018-06-19T01:26:35.133Z,16.43
2018-06-19T01:29:02.771Z,16.10
2018-06-19T01:31:30.499Z,16.53
2018-06-19T01:33:58.093Z,16.40
2018-06-19T01:36:25.750Z,15.57
2018-06-19T01:38:53.557Z,15.60
2018-06-19T01:41:21.391Z,14.60
2018-06-19T01:43:48.994Z,15.70
2018-06-19T01:46:17.362Z,15.10
2018-06-19T01:48:45.227Z,14.97
2018-06-19T01:51:12.856Z,15.13
2018-06-19T01:53:40.476Z,15.90
2018-06-19T01:56:08.111Z,14.37
2018-06-19T01:58:35.692Z,16.30
2018-06-19T02:01:03.370Z,15.87
2018-06-19T02:03:31.102Z,15.57
2018-06-19T02:05:58.680Z,15.77
2018-06-19T02:08:26.563Z,16.00
2018-06-19T02:10:54.161Z,15.40
2018-06-19T02:13:21.798Z,15.67
2018-06-19T02:15:49.742Z,16.63
2018-06-19T02:18:17.436Z,15.87
2018-06-19T02:20:44.997Z,16.37
2018-06-19T02:23:12.564Z,15.67
2018-06-19T02:25:40.232Z,15.00
2018-06-19T02:28:07.871Z,16.37
2018-06-19T02:30:35.504Z,16.50
2018-06-19T02:33:03.210Z,16.97
2018-06-19T02:35:30.826Z,15.17
2018-06-19T02:37:58.514Z,16.30
2018-06-19T02:40:26.220Z,16.40
2018-06-19T02:42:53.791Z,17.67
2018-06-19T02:45:21.386Z,17.03
2018-06-19T02:47:49.042Z,17.10
2018-06-19T02:50:16.661Z,17.90
2018-06-19T02:52:44.387Z,16.93
2018-06-19T02:55:12.084Z,17.77
2018-06-19T02:57:39.705Z,17.77
2018-06-19T03:00:07.613Z,19.10
2018-06-19T03:02:35.377Z,19.60
2018-06-19T03:05:02.978Z,19.10
2018-06-19T03:07:30.621Z,18.63
2018-06-19T03:09:58.193Z,20.03
2018-06-19T03:12:25.800Z,20.87
2018-06-19T03:14:53.387Z,19.77
2018-06-19T03:17:21.012Z,18.60
2018-06-19T03:19:48.627Z,17.13
2018-06-19T03:22:16.358Z,16.20
2018-06-19T03:24:44.021Z,16.00
2018-06-19T03:27:11.653Z,16.90
2018-06-19T03:29:39.369Z,17.87
2018-06-19T03:32:06.984Z,17.60
2018-06-19T03:34:34.594Z,17.27
2018-06-19T03:37:02.213Z,17.60
2018-06-19T03:39:29.872Z,16.77
2018-06-19T03:41:57.515Z,15.70
2018-06-19T03:44:25.128Z,16.20
2018-06-19T03:46:52.873Z,16.00
2018-06-19T03:49:20.518Z,15.37
2018-06-19T03:51:48.117Z,16.27
2018-06-19T03:54:15.752Z,15.83
2018-06-19T03:56:43.381Z,15.27
2018-06-19T03:59:11.089Z,15.40
2018-06-19T04:01:38.682Z,16.03
2018-06-19T04:04:06.417Z,16.70
2018-06-19T04:06:33.978Z,16.93
2018-06-19T04:09:04.243Z,16.43
2018-06-19T04:11:32.023Z,17.00
2018-06-19T04:13:59.637Z,16.27
2018-06-19T04:16:27.300Z,16.27
2018-06-19T04:18:55.006Z,18.93
2018-06-19T04:21:22.869Z,19.40
2018-06-19T04:23:50.862Z,19.47
2018-06-19T04:26:18.594Z,20.83
2018-06-19T04:28:46.555Z,20.20
2018-06-19T04:31:14.203Z,20.00
2018-06-19T04:33:41.917Z,21.77
2018-06-19T04:36:09.564Z,20.00
2018-06-19T04:38:42.262Z,20.60
2018-06-19T04:41:09.893Z,20.43
2018-06-19T04:43:37.684Z,20.83
2018-06-19T04:46:05.449Z,21.20
2018-06-19T04:48:33.102Z,19.93
2018-06-19T04:51:00.748Z,20.00
2018-06-19T04:53:28.814Z,20.70
2018-06-19T04:55:56.490Z,20.30
2018-06-19T04:58:24.184Z,20.80
2018-06-19T05:00:51.913Z,19.03
2018-06-19T05:03:19.575Z,20.03
2018-06-19T05:05:47.271Z,19.67
2018-06-19T05:08:14.911Z,19.03
2018-06-19T05:10:42.676Z,18.40
2018-06-19T05:13:10.263Z,19.53
2018-06-19T05:15:37.999Z,18.53
2018-06-19T05:18:05.638Z,17.60
2018-06-19T05:20:33.529Z,19.00
2018-06-19T05:23:01.241Z,18.60
2018-06-19T05:25:28.828Z,20.70
2018-06-19T05:27:56.523Z,18.47
2018-06-19T05:30:24.233Z,19.10
2018-06-19T05:32:51.921Z,18.90
2018-06-19T05:35:19.577Z,18.23
2018-06-19T05:37:47.202Z,19.13
2018-06-19T05:40:14.771Z,20.13
2018-06-19T05:42:43.718Z,20.10
2018-06-19T05:45:12.261Z,20.77
2018-06-19T05:47:39.951Z,21.70
2018-06-19T05:50:07.720Z,21.20
2018-06-19T05:52:35.393Z,21.40
2018-06-19T05:55:03.153Z,21.67
2018-06-19T05:57:30.770Z,20.70
2018-06-19T05:59:58.436Z,20.20
2018-06-19T06:02:26.016Z,21.93
2018-06-19T06:04:53.697Z,19.27
2018-06-19T06:07:21.324Z,20.40
2018-06-19T06:09:49.842Z,19.47
2018-06-19T06:12:17.695Z,21.73
2018-06-19T06:14:46.031Z,20.43
2018-06-19T06:17:13.828Z,20.03
2018-06-19T06:19:41.789Z,19.63
2018-06-19T06:22:09.422Z,22.27
2018-06-19T06:24:37.090Z,20.37
2018-06-19T06:27:05.988Z,20.30
2018-06-19T06:29:33.635Z,20.80
2018-06-19T06:32:01.202Z,20.20
2018-06-19T06:34:28.825Z,20.73
2018-06-19T06:36:56.578Z,19.60
2018-06-19T06:39:24.119Z,19.00
2018-06-19T06:41:51.804Z,18.57
2018-06-19T06:44:19.452Z,18.80
2018-06-19T06:46:47.133Z,20.47
2018-06-19T06:49:14.759Z,19.40
2018-06-19T06:51:42.325Z,18.90
2018-06-19T06:54:09.983Z,19.03
2018-06-19T06:56:37.717Z,18.10
2018-06-19T06:59:06.390Z,18.77
2018-06-19T07:01:34.011Z,17.83
2018-06-19T07:04:01.647Z,19.17
2018-06-19T07:06:29.639Z,18.33
2018-06-19T07:08:57.301Z,18.77
2018-06-19T07:11:24.884Z,19.47
2018-06-19T07:13:52.484Z,17.10
2018-06-19T07:16:20.089Z,18.93
2018-06-19T07:18:47.737Z,18.60
2018-06-19T07:21:15.237Z,17.67
2018-06-19T07:23:42.830Z,17.57
2018-06-19T07:26:10.424Z,17.90
2018-06-19T07:28:38.028Z,16.97
2018-06-19T07:31:05.638Z,18.30
2018-06-19T07:33:33.261Z,18.50
2018-06-19T07:36:00.835Z,17.70
2018-06-19T07:38:28.575Z,19.13
2018-06-19T07:40:56.193Z,18.60
2018-06-19T07:43:23.864Z,17.87
2018-06-19T07:45:51.460Z,18.70
2018-06-19T07:48:19.029Z,17.97
2018-06-19T07:50:46.639Z,19.63
2018-06-19T07:53:14.265Z,18.87
2018-06-19T07:55:41.961Z,18.07
2018-06-19T07:58:09.631Z,18.00
2018-06-19T08:00:37.254Z,18.70
2018-06-19T08:03:04.929Z,17.03
2018-06-19T08:05:32.490Z,17.30
2018-06-19T08:08:00.131Z,16.50
2018-06-19T08:10:27.735Z,17.63
2018-06-19T08:12:55.370Z,17.30
2018-06-19T08:15:23.022Z,17.97
2018-06-19T08:17:50.679Z,18.23
2018-06-19T08:20:18.303Z,17.00
2018-06-19T08:22:45.934Z,15.83
2018-06-19T08:25:13.531Z,17.80
2018-06-19T08:27:41.161Z,16.40
2018-06-19T08:30:08.832Z,15.57
2018-06-19T08:32:36.438Z,16.80
2018-06-19T08:35:04.069Z,17.40
2018-06-19T08:37:31.626Z,17.03
2018-06-19T08:39:59.282Z,16.87
2018-06-19T08:42:26.885Z,17.00
2018-06-19T08:44:54.483Z,15.67
2018-06-19T08:47:22.097Z,15.60
2018-06-19T08:49:49.689Z,16.87
2018-06-19T08:52:17.351Z,14.87
2018-06-19T08:54:44.916Z,14.80
2018-06-19T08:57:12.611Z,15.00
2018-06-19T08:59:40.447Z,15.07
2018-06-19T09:02:08.475Z,15.47
2018-06-19T09:04:36.172Z,13.80
2018-06-19T09:07:04.306Z,15.63
2018-06-19T09:09:31.952Z,14.57
2018-06-19T09:11:59.509Z,14.50
2018-06-19T09:14:27.170Z,14.17
2018-06-19T09:16:54.856Z,13.23
2018-06-19T09:19:22.561Z,12.20
2018-06-19T09:21:51.043Z,12.70
2018-06-19T09:24:18.671Z,11.90
2018-06-19T09:26:46.310Z,12.80
2018-06-19T09:29:13.900Z,11.40
2018-06-19T09:31:41.683Z,10.00
2018-06-19T09:34:09.278Z,9.37
2018-06-19T09:36:36.964Z,10.27
2018-06-19T09:39:06.900Z,10.97
2018-06-19T09:41:34.628Z,11.33
2018-06-19T09:44:02.381Z,11.17
2018-06-19T09:46:30.058Z,9.53
2018-06-19T09:48:57.612Z,11.13
2018-06-19T09:51:25.405Z,10.70
2018-06-19T09:53:53.129Z,10.90
2018-06-19T09:56:20.869Z,9.93
2018-06-19T09:58:48.478Z,10.20
2018-06-19T10:01:16.131Z,11.53
2018-06-19T10:03:43.731Z,12.50
2018-06-19T10:06:11.410Z,11.87
2018-06-19T10:08:38.968Z,11.50
2018-06-19T10:11:06.727Z,12.87
2018-06-19T10:13:34.341Z,12.87
2018-06-19T10:16:02.002Z,14.83
2018-06-19T10:18:29.636Z,13.83
2018-06-19T10:20:57.248Z,15.27
2018-06-19T10:23:24.858Z,15.07
2018-06-19T10:25:52.393Z,15.80
2018-06-19T10:28:19.998Z,16.37
2018-06-19T10:30:47.638Z,14.70
2018-06-19T10:33:15.325Z,15.10
2018-06-19T10:35:43.003Z,14.70
2018-06-19T10:38:10.652Z,13.93
2018-06-19T10:40:38.287Z,16.10
2018-06-19T10:43:05.861Z,15.47
2018-06-19T10:45:33.540Z,14.77
2018-06-19T10:48:01.191Z,12.80
2018-06-19T10:50:28.749Z,12.80
2018-06-19T10:52:56.397Z,11.23
2018-06-19T10:55:24.039Z,11.57
2018-06-19T10:57:51.735Z,10.80
2018-06-19T11:00:19.348Z,9.97
2018-06-19T11:02:47.204Z,9.60
2018-06-19T11:05:14.793Z,9.07
2018-06-19T11:07:42.308Z,9.80
2018-06-19T11:10:09.918Z,10.13
2018-06-19T11:12:37.486Z,10.13
2018-06-19T11:15:05.218Z,9.60
2018-06-19T11:17:32.768Z,9.83
2018-06-19T11:20:00.553Z,8.93
2018-06-19T11:22:28.249Z,10.30
2018-06-19T11:24:55.821Z,9.00
2018-06-19T11:27:23.479Z,8.30
2018-06-19T11:29:51.078Z,8.23
2018-06-19T11:32:18.655Z,8.87
2018-06-19T11:34:46.261Z,7.67
2018-06-19T11:37:13.922Z,8.60
2018-06-19T11:39:41.437Z,8.20
2018-06-19T11:42:09.012Z,8.73
2018-06-19T11:44:36.604Z,9.37
2018-06-19T11:47:04.207Z,8.90
2018-06-19T11:49:31.727Z,8.97
2018-06-19T11:51:59.351Z,10.17
2018-06-19T11:54:26.963Z,10.43
2018-06-19T11:56:54.805Z,10.40
2018-06-19T11:59:22.295Z,11.17
2018-06-19T12:01:49.958Z,11.10
2018-06-19T12:04:17.517Z,12.70
2018-06-19T12:06:45.177Z,12.60
2018-06-19T12:09:12.735Z,12.83
2018-06-19T12:11:40.698Z,12.60
2018-06-19T12:14:09.006Z,12.60
2018-06-19T12:16:36.696Z,14.23
2018-06-19T12:19:04.405Z,14.20
2018-06-19T12:21:32.103Z,13.90
2018-06-19T12:23:59.939Z,15.60
2018-06-19T12:26:27.570Z,15.50
2018-06-19T12:28:55.161Z,16.03
2018-06-19T12:31:22.707Z,15.37
2018-06-19T12:33:50.278Z,17.03
2018-06-19T12:36:17.785Z,17.30
2018-06-19T12:38:45.601Z,16.30
2018-06-19T12:41:13.149Z,17.50
2018-06-19T12:43:40.801Z,17.10
2018-06-19T12:46:08.380Z,16.43
2018-06-19T12:48:36.085Z,16.33
2018-06-19T12:52:17.492Z,17.97
2018-06-19T12:55:10.733Z,17.43
2018-06-19T12:57:38.380Z,16.80
2018-06-19T13:00:06.488Z,16.23
2018-06-19T13:02:34.054Z,17.43
2018-06-19T13:05:13.071Z,14.13
2018-06-19T13:07:41.997Z,14.47
2018-06-19T13:10:09.921Z,13.47
2018-06-19T13:13:19.993Z,14.80
2018-06-19T13:15:48.054Z,12.50
2018-06-19T13:18:27.182Z,11.20
2018-06-19T13:20:54.756Z,10.70
2018-06-19T13:23:22.390Z,11.80
2018-06-19T13:25:50.174Z,11.57
2018-06-19T13:28:17.790Z,13.43
2018-06-19T13:30:56.982Z,13.00
2018-06-19T13:33:24.606Z,13.20
2018-06-19T13:35:52.137Z,12.60
2018-06-19T13:38:19.679Z,12.37
2018-06-19T13:40:53.744Z,13.80
2018-06-19T13:43:32.891Z,12.73
2018-06-19T13:46:00.525Z,14.53
2018-06-19T13:48:28.077Z,13.73
2018-06-19T13:50:55.632Z,12.47
2018-06-19T13:53:23.314Z,11.03
2018-06-19T13:56:11.086Z,12.90
2018-06-19T13:58:38.714Z,12.10
2018-06-19T14:01:07.085Z,12.27
2018-06-19T14:03:34.702Z,12.33
2018-06-19T14:06:02.247Z,11.77
2018-06-19T14:08:50.665Z,11.23
2018-06-19T14:11:29.831Z,12.33
2018-06-19T14:13:57.440Z,9.47
2018-06-19T14:16:25.199Z,9.87
2018-06-19T14:18:52.764Z,9.40
2018-06-19T14:21:20.291Z,10.47
2018-06-19T14:23:47.822Z,8.93
2018-06-19T14:26:15.833Z,9.73
2018-06-19T14:28:43.874Z,11.17
2018-06-19T14:31:11.525Z,10.20
2018-06-19T14:33:39.120Z,10.03
2018-06-19T14:36:06.776Z,9.90
2018-06-19T14:38:34.469Z,10.50
2018-06-19T14:41:02.053Z,10.43
2018-06-19T14:43:29.772Z,11.23
2018-06-19T14:45:57.363Z,11.07
2018-06-19T14:48:25.065Z,9.57
2018-06-19T14:50:52.590Z,11.07
2018-06-19T14:53:20.212Z,10.57
2018-06-19T14:55:47.774Z,12.00
2018-06-19T14:58:15.318Z,11.40
2018-06-19T15:00:42.889Z,10.43
2018-06-19T15:03:10.461Z,10.23
2018-06-19T15:05:38.118Z,10.97
2018-06-19T15:08:05.650Z,11.17
2018-06-19T15:10:33.184Z,11.60
2018-06-19T15:13:00.710Z,10.50
2018-06-19T15:15:28.293Z,11.70
2018-06-19T15:17:55.921Z,11.80
2018-06-19T15:20:23.523Z,11.47
2018-06-19T15:22:51.106Z,9.93
2018-06-19T15:25:18.772Z,10.27
2018-06-19T15:27:46.452Z,11.23
2018-06-19T15:30:14.098Z,11.03
2018-06-19T15:32:41.664Z,10.00
2018-06-19T15:35:09.289Z,11.27
2018-06-19T15:37:36.860Z,11.10
2018-06-19T15:40:04.432Z,12.00
2018-06-19T15:42:31.985Z,11.47
2018-06-19T15:44:59.621Z,12.90
2018-06-19T15:47:27.163Z,13.10
2018-06-19T15:49:54.801Z,12.93
2018-06-19T15:52:22.351Z,14.00
2018-06-19T15:54:49.962Z,13.33
2018-06-19T15:57:17.584Z,13.13
2018-06-19T15:59:45.150Z,14.07
2018-06-19T16:02:12.720Z,12.20
2018-06-19T16:04:40.294Z,11.17
2018-06-19T16:07:07.917Z,10.87
2018-06-19T16:09:35.577Z,9.50
2018-06-19T16:12:03.289Z,9.23
2018-06-19T16:14:31.013Z,8.90
2018-06-19T16:16:58.617Z,8.90
2018-06-19T16:19:26.321Z,7.70
2018-06-19T16:21:54.101Z,5.37
2018-06-19T16:24:21.693Z,4.87
2018-06-19T16:26:49.258Z,4.40
2018-06-19T16:29:17.024Z,4.40
2018-06-19T16:31:44.627Z,3.90
2018-06-19T16:34:12.226Z,3.87
2018-06-19T16:36:39.748Z,3.57
2018-06-19T16:39:08.558Z,3.93
2018-06-19T16:41:36.210Z,4.43
2018-06-19T16:44:04.015Z,3.50
2018-06-19T16:46:31.947Z,3.53
2018-06-19T16:48:59.472Z,3.90
2018-06-19T16:51:27.129Z,3.80
2018-06-19T16:53:54.674Z,3.47
2018-06-19T16:56:22.333Z,3.63
2018-06-19T16:58:49.862Z,3.50
2018-06-19T17:01:17.438Z,3.43
2018-06-19T17:03:45.002Z,3.87
2018-06-19T17:06:12.575Z,2.80
2018-06-19T17:08:40.159Z,2.47
2018-06-19T17:11:07.737Z,2.63
2018-06-19T17:13:35.260Z,2.20
2018-06-19T17:16:02.929Z,2.80
2018-06-19T17:18:30.471Z,2.77
2018-06-19T17:20:58.133Z,2.50
2018-06-19T17:23:25.713Z,2.43
2018-06-19T17:25:53.308Z,2.90
2018-06-19T17:28:20.937Z,2.40
2018-06-19T17:30:48.585Z,2.30
2018-06-19T17:33:16.171Z,2.50
2018-06-19T17:35:43.769Z,2.90
2018-06-19T17:38:11.322Z,2.80
2018-06-19T17:40:38.925Z,3.20
2018-06-19T17:43:06.502Z,2.40
2018-06-19T17:45:34.125Z,3.40
2018-06-19T17:48:01.761Z,2.90
2018-06-19T17:50:29.376Z,2.40
2018-06-19T17:52:56.988Z,2.70
2018-06-19T17:55:24.721Z,2.83
2018-06-19T17:57:52.266Z,2.77
2018-06-19T18:00:19.886Z,3.00
2018-06-19T18:02:47.455Z,2.70
2018-06-19T18:05:15.009Z,2.50
2018-06-19T18:07:42.875Z,2.50
2018-06-19T18:10:10.481Z,2.20
2018-06-19T18:12:38.039Z,2.30
2018-06-19T18:15:05.601Z,2.10
2018-06-19T18:17:33.243Z,2.20
2018-06-19T18:20:00.888Z,1.93
2018-06-19T18:22:28.438Z,2.60
2018-06-19T18:24:56.021Z,1.90
2018-06-19T18:27:23.674Z,1.87
2018-06-19T18:29:51.220Z,2.30
2018-06-19T18:32:18.922Z,2.10
2018-06-19T18:34:46.492Z,1.73
2018-06-19T18:37:14.124Z,1.90
2018-06-19T18:39:41.784Z,1.77
2018-06-19T18:42:09.549Z,1.60
2018-06-19T18:44:37.214Z,1.27
2018-06-19T18:47:04.936Z,1.50
2018-06-19T18:49:32.634Z,1.60
2018-06-19T18:52:00.296Z,1.60
2018-06-19T18:54:27.958Z,1.60
2018-06-19T18:56:55.882Z,1.80
2018-06-19T18:59:23.498Z,1.70
2018-06-19T19:01:51.146Z,1.43
2018-06-19T19:04:18.857Z,1.47
2018-06-19T19:06:46.574Z,1.70
2018-06-19T19:09:14.163Z,1.43
2018-06-19T19:11:41.760Z,1.37
2018-06-19T19:14:09.452Z,1.60
2018-06-19T19:16:42.731Z,1.73
2018-06-19T19:19:12.538Z,1.63
2018-06-19T19:21:40.120Z,1.83
2018-06-19T19:24:07.737Z,2.00
2018-06-19T19:26:41.093Z,1.97
2018-06-19T19:29:14.415Z,1.80
2018-06-19T19:31:42.100Z,1.77
2018-06-19T19:34:09.686Z,1.40
2018-06-19T19:36:42.901Z,1.73
2018-06-19T19:39:16.140Z,4.07
2018-06-19T19:41:44.898Z,1.87
2018-06-19T19:44:12.479Z,2.03
2018-06-19T19:46:45.801Z,1.83
2018-06-19T19:49:13.386Z,2.10
2018-06-19T19:51:40.978Z,1.93
2018-06-19T19:54:08.729Z,2.17
2018-06-19T19:56:41.927Z,2.13
2018-06-19T19:59:09.461Z,2.50
2018-06-19T20:01:37.069Z,3.50
2018-06-19T20:04:04.693Z,2.40
2018-06-19T20:06:32.264Z,2.70
2018-06-19T20:08:59.815Z,3.10
2018-06-19T20:11:27.441Z,2.20
2018-06-19T20:13:55.053Z,2.30
2018-06-19T20:16:22.676Z,2.33
2018-06-19T20:18:50.201Z,2.53
2018-06-19T20:21:17.790Z,2.30
2018-06-19T20:23:45.335Z,2.37
2018-06-19T20:26:12.894Z,3.60
2018-06-19T20:28:40.460Z,3.07
2018-06-19T20:31:07.990Z,2.30
2018-06-19T20:33:35.528Z,2.60
2018-06-19T20:36:03.350Z,2.30
2018-06-19T20:38:30.939Z,2.40
2018-06-19T20:40:58.561Z,2.43
2018-06-19T20:43:26.136Z,2.97
2018-06-19T20:45:53.798Z,2.20
2018-06-19T20:48:21.617Z,2.90
2018-06-19T20:50:49.409Z,3.57
2018-06-19T20:53:17.159Z,2.60
2018-06-19T20:55:44.951Z,2.70
2018-06-19T20:58:12.568Z,2.47
2018-06-19T21:00:40.084Z,2.30
2018-06-19T21:03:07.821Z,2.50
2018-06-19T21:05:35.352Z,2.47
2018-06-19T21:08:02.953Z,2.90
2018-06-19T21:10:30.599Z,2.70
2018-06-19T21:12:58.258Z,2.83
2018-06-19T21:15:25.980Z,2.73
2018-06-19T21:17:53.584Z,2.33
2018-06-19T21:20:21.140Z,2.63
2018-06-19T21:22:48.700Z,2.80
2018-06-19T21:25:16.361Z,2.60
2018-06-19T21:27:43.909Z,2.67
2018-06-19T21:30:11.581Z,2.57
2018-06-19T21:32:39.381Z,2.77
2018-06-19T21:35:06.912Z,2.77
2018-06-19T21:37:34.564Z,2.37
2018-06-19T21:40:02.432Z,3.37
2018-06-19T21:42:30.002Z,2.37
2018-06-19T21:44:57.595Z,2.40
2018-06-19T21:47:25.141Z,2.40
2018-06-19T21:49:52.722Z,2.60
2018-06-19T21:52:20.262Z,2.60
2018-06-19T21:54:47.819Z,2.20
2018-06-19T21:57:15.344Z,2.43
2018-06-19T21:59:42.898Z,2.23
2018-06-19T22:02:10.482Z,2.93
2018-06-19T22:04:38.052Z,2.60
2018-06-19T22:07:05.612Z,2.60
2018-06-19T22:09:33.187Z,2.93
2018-06-19T22:12:00.731Z,2.60
2018-06-19T22:14:28.355Z,2.67
2018-06-19T22:16:56.005Z,2.60
2018-06-19T22:19:23.561Z,2.70
2018-06-19T22:21:51.140Z,2.70
2018-06-19T22:24:18.703Z,3.23
2018-06-19T22:26:46.222Z,2.73
2018-06-19T22:29:13.769Z,3.43
2018-06-19T22:31:41.312Z,3.20
2018-06-19T22:34:08.870Z,3.00
2018-06-19T22:36:36.391Z,3.43
2018-06-19T22:39:05.954Z,2.90
2018-06-19T22:41:33.454Z,2.73
2018-06-19T22:44:01.061Z,3.10
2018-06-19T22:46:28.613Z,3.07
2018-06-19T22:48:56.217Z,3.67
2018-06-19T22:51:23.898Z,3.33
2018-06-19T22:53:51.456Z,2.90
2018-06-19T22:56:19.229Z,3.40
2018-06-19T22:58:46.892Z,3.23
2018-06-19T23:01:14.429Z,3.80
2018-06-19T23:03:42.059Z,3.17
2018-06-19T23:06:09.662Z,3.20
2018-06-19T23:08:37.302Z,3.50
2018-06-19T23:11:04.897Z,3.47
2018-06-19T23:13:32.473Z,3.37
2018-06-19T23:16:00.039Z,3.20
2018-06-19T23:18:27.653Z,2.80
2018-06-19T23:20:55.248Z,2.83
2018-06-19T23:23:22.854Z,3.10
2018-06-19T23:25:50.455Z,3.50
2018-06-19T23:28:18.073Z,3.87
2018-06-19T23:30:45.645Z,3.30
2018-06-19T23:33:13.266Z,3.50
2018-06-19T23:35:40.982Z,3.40
2018-06-19T23:38:08.556Z,3.50
2018-06-19T23:40:36.157Z,4.07
2018-06-19T23:43:03.822Z,3.90
2018-06-19T23:45:31.466Z,3.60
2018-06-19T23:47:59.065Z,3.60
2018-06-19T23:50:26.660Z,3.60
2018-06-19T23:52:54.246Z,3.30
2018-06-19T23:55:22.073Z,3.50
2018-06-19T23:57:49.646Z,3.40
